Time;durP1;ratioP1;P1;durP2;ratioP2;P2;SDS_P1;SDS_P2;PMS_P1;PMS_P2;Temp;Humidity;BMP_temperature;BMP_pressure;BME280_temperature;BME280_humidity;BME280_pressure;Samples;Min_cycle;Max_cycle;Signal;HPM_P1;HPM_P2
2022/11/08 00:01:41;;;;;;;9.40;8.17;;;7.20;99.90;;;;;;4975686;28;20620;-85
2022/11/08 00:04:12;;;;;;;9.17;8.27;;;7.30;99.90;;;;;;4979172;28;20628;-85
2022/11/08 00:14:54;;;;;;;8.70;7.90;;;7.00;99.90;;;;;;4975526;28;20684;-86
2022/11/08 00:17:23;;;;;;;8.10;7.30;;;7.10;99.90;;;;;;4978547;28;21217;-86
2022/11/08 00:19:51;;;;;;;8.30;7.47;;;7.00;99.90;;;;;;4978162;28;20638;-86
2022/11/08 00:22:19;;;;;;;7.83;7.03;;;7.10;99.90;;;;;;4977604;28;20651;-86
2022/11/08 00:24:46;;;;;;;8.00;7.20;;;7.10;99.90;;;;;;4980932;28;20646;-85
2022/11/08 00:27:15;;;;;;;8.30;7.47;;;7.00;99.90;;;;;;4980289;28;20632;-85
2022/11/08 00:29:41;;;;;;;9.13;7.37;;;7.10;99.90;;;;;;4979288;28;20644;-85
2022/11/08 00:32:11;;;;;;;9.40;8.00;;;6.80;99.90;;;;;;4978303;28;20639;-85
2022/11/08 00:34:38;;;;;;;8.73;7.83;;;7.00;99.90;;;;;;4982562;28;20675;-85
2022/11/08 00:37:06;;;;;;;8.70;7.87;;;7.00;99.90;;;;;;4979174;28;20687;-85
2022/11/08 00:39:34;;;;;;;8.10;7.30;;;7.10;99.90;;;;;;4977833;28;20641;-85
2022/11/08 00:42:00;;;;;;;8.80;7.83;;;7.10;99.90;;;;;;4984805;28;20632;-85
2022/11/08 00:44:27;;;;;;;8.47;7.70;;;6.90;99.90;;;;;;4980252;28;20630;-86
2022/11/08 00:46:54;;;;;;;9.00;7.83;;;7.00;99.90;;;;;;4982934;28;20680;-85
2022/11/08 00:49:21;;;;;;;7.40;6.70;;;6.90;99.90;;;;;;4980786;28;20635;-86
2022/11/08 00:51:48;;;;;;;7.80;7.00;;;6.90;99.90;;;;;;4977577;28;20667;-86
2022/11/08 00:54:18;;;;;;;8.63;6.90;;;6.30;99.90;;;;;;4981659;28;20651;-86
2022/11/08 00:56:45;;;;;;;9.40;7.43;;;6.30;99.90;;;;;;4986222;28;20672;-86
2022/11/08 00:59:12;;;;;;;11.33;7.87;;;6.60;99.90;;;;;;4984359;28;20640;-86
2022/11/08 01:01:39;;;;;;;8.37;7.77;;;6.80;99.90;;;;;;4983564;28;20637;-86
2022/11/08 01:04:06;;;;;;;8.50;7.70;;;6.80;99.90;;;;;;4982860;28;20632;-86
2022/11/08 01:06:33;;;;;;;8.30;6.93;;;6.80;99.90;;;;;;4980339;28;20711;-86
2022/11/08 01:09:00;;;;;;;7.97;7.07;;;6.80;99.90;;;;;;4987450;28;20639;-85
2022/11/08 01:11:28;;;;;;;7.80;7.10;;;6.80;99.90;;;;;;4982351;28;21244;-85
2022/11/08 01:13:57;;;;;;;8.43;6.83;;;6.80;99.90;;;;;;4982895;28;20635;-85
2022/11/08 01:16:26;;;;;;;7.90;6.93;;;6.80;99.90;;;;;;4981554;28;20684;-86
2022/11/08 01:18:54;;;;;;;8.20;7.40;;;6.80;99.90;;;;;;4982827;28;20632;-85
2022/11/08 01:21:22;;;;;;;7.50;6.80;;;6.70;99.90;;;;;;4979684;28;20643;-86
2022/11/08 01:23:49;;;;;;;8.27;7.57;;;6.80;99.90;;;;;;4979860;28;20643;-86
2022/11/08 01:26:18;;;;;;;7.30;6.70;;;6.40;99.90;;;;;;4978899;28;20657;-85
2022/11/08 01:28:47;;;;;;;7.73;7.03;;;6.70;99.90;;;;;;4985683;28;20632;-85
2022/11/08 01:31:15;;;;;;;7.87;7.07;;;6.80;99.90;;;;;;4984280;28;20630;-85
2022/11/08 01:33:42;;;;;;;7.60;6.90;;;6.80;99.90;;;;;;4991374;28;20665;-86
2022/11/08 01:36:11;;;;;;;8.03;7.33;;;6.60;99.90;;;;;;4986200;28;20685;-85
2022/11/08 01:38:37;;;;;;;8.20;7.50;;;6.80;99.90;;;;;;4989795;28;20641;-86
2022/11/08 01:41:05;;;;;;;7.57;6.97;;;6.60;99.90;;;;;;4992464;28;21012;-85
2022/11/08 01:43:41;;;;;;;8.80;8.10;;;6.60;99.90;;;;;;4987478;28;20633;-86
2022/11/08 01:46:34;;;;;;;10.97;7.63;;;6.70;99.90;;;;;;4989805;28;20652;-85
2022/11/08 01:49:32;;;;;;;7.90;7.20;;;6.60;99.90;;;;;;4988811;28;20633;-86
2022/11/08 01:52:16;;;;;;;8.00;7.30;;;6.70;99.90;;;;;;4992728;28;20620;-85
2022/11/08 01:54:49;;;;;;;7.93;7.23;;;6.50;99.90;;;;;;4988758;28;21232;-85
2022/11/08 01:57:19;;;;;;;7.47;6.87;;;6.40;99.90;;;;;;4993552;28;20641;-85
2022/11/08 01:59:49;;;;;;;8.33;6.93;;;6.40;99.90;;;;;;4989636;28;20628;-84
2022/11/08 02:02:18;;;;;;;7.23;6.53;;;6.50;99.90;;;;;;4985629;28;20629;-85
2022/11/08 02:04:45;;;;;;;9.03;6.50;;;6.20;99.90;;;;;;4991302;28;20653;-85
2022/11/08 02:07:13;;;;;;;6.90;6.30;;;6.50;99.90;;;;;;4991280;28;20631;-85
2022/11/08 02:09:43;;;;;;;7.60;6.90;;;6.40;99.90;;;;;;4991251;28;20629;-85
2022/11/08 02:12:12;;;;;;;6.70;5.70;;;6.60;99.90;;;;;;4987660;28;21171;-85
2022/11/08 02:14:38;;;;;;;7.67;7.07;;;6.30;99.90;;;;;;4987495;28;20629;-86
2022/11/08 02:17:06;;;;;;;6.50;5.90;;;6.20;99.90;;;;;;4984691;28;20636;-85
2022/11/08 02:19:40;;;;;;;6.70;6.20;;;6.20;99.90;;;;;;4985753;28;20660;-85
2022/11/08 02:22:16;;;;;;;6.30;5.70;;;6.40;99.90;;;;;;4993061;28;20642;-85
2022/11/08 02:24:44;;;;;;;6.73;6.13;;;6.30;99.90;;;;;;4986917;28;20640;-85
2022/11/08 02:27:12;;;;;;;6.37;5.73;;;6.20;99.90;;;;;;4986290;28;20645;-85
2022/11/08 02:29:39;;;;;;;7.53;6.33;;;6.30;99.90;;;;;;4986116;28;20636;-85
2022/11/08 02:32:07;;;;;;;7.13;6.43;;;5.70;99.90;;;;;;4987428;28;20652;-85
2022/11/08 02:34:37;;;;;;;6.90;6.20;;;6.30;99.90;;;;;;4990485;28;20724;-85
2022/11/08 02:37:05;;;;;;;6.80;6.20;;;6.40;99.90;;;;;;4985766;28;20632;-84
2022/11/08 02:39:33;;;;;;;7.07;6.47;;;6.20;99.90;;;;;;4984495;28;21563;-85
2022/11/08 02:42:01;;;;;;;6.70;6.17;;;6.20;99.90;;;;;;4984892;28;20651;-85
2022/11/08 02:44:28;;;;;;;6.47;5.87;;;6.10;99.90;;;;;;4981861;28;20684;-86
2022/11/08 02:46:55;;;;;;;6.80;6.10;;;6.00;99.90;;;;;;4990838;28;20653;-86
2022/11/08 02:49:23;;;;;;;6.63;5.90;;;6.20;99.90;;;;;;4984112;28;20629;-85
2022/11/08 02:51:52;;;;;;;7.80;7.00;;;6.20;99.90;;;;;;4989171;28;20639;-85
2022/11/08 02:54:19;;;;;;;7.43;6.83;;;6.00;99.90;;;;;;4985845;28;20633;-86
2022/11/08 02:56:46;;;;;;;7.73;7.03;;;6.10;99.90;;;;;;4972831;28;21553;-86
2022/11/08 02:59:14;;;;;;;6.60;6.10;;;6.10;99.90;;;;;;4978824;28;20637;-85
2022/11/08 03:01:41;;;;;;;6.67;6.07;;;6.00;99.90;;;;;;4991951;28;20625;-85
2022/11/08 03:04:08;;;;;;;7.00;6.30;;;6.10;99.90;;;;;;4990864;28;20627;-85
2022/11/08 03:06:34;;;;;;;7.97;7.17;;;5.90;99.90;;;;;;4984461;28;21306;-85
2022/11/08 03:09:01;;;;;;;6.20;5.60;;;5.90;99.90;;;;;;4990989;28;20630;-85
2022/11/08 03:11:28;;;;;;;7.00;6.43;;;5.90;99.90;;;;;;4992342;28;20647;-86
2022/11/08 03:13:55;;;;;;;6.70;6.10;;;6.10;99.90;;;;;;4993018;28;21039;-85
2022/11/08 03:16:23;;;;;;;6.00;5.50;;;5.90;99.90;;;;;;4984509;28;20687;-85
2022/11/08 03:18:50;;;;;;;6.93;6.27;;;5.90;99.90;;;;;;4997072;28;21214;-85
2022/11/08 03:21:17;;;;;;;6.83;5.60;;;6.00;99.90;;;;;;4987827;28;21291;-85
2022/11/08 03:23:43;;;;;;;6.70;6.20;;;5.90;99.90;;;;;;4985327;28;20636;-85
2022/11/08 03:26:10;;;;;;;7.60;6.27;;;5.80;99.90;;;;;;4981361;28;20658;-85
2022/11/08 03:28:37;;;;;;;6.40;5.90;;;5.80;99.90;;;;;;4984678;28;20626;-85
2022/11/08 03:31:04;;;;;;;5.80;5.40;;;5.80;99.90;;;;;;4991110;28;20643;-85
2022/11/08 03:33:32;;;;;;;6.67;5.90;;;5.50;99.90;;;;;;4989700;28;20631;-85
2022/11/08 03:35:59;;;;;;;6.47;5.87;;;5.80;99.90;;;;;;4992132;28;20681;-84
2022/11/08 03:38:25;;;;;;;6.60;6.00;;;5.70;99.90;;;;;;4988982;28;21979;-85
2022/11/08 03:40:52;;;;;;;6.57;6.07;;;5.70;99.90;;;;;;4986361;28;20645;-85
2022/11/08 03:43:19;;;;;;;6.57;5.83;;;5.70;99.90;;;;;;4984526;28;20631;-85
2022/11/08 03:45:46;;;;;;;7.03;6.33;;;5.80;99.90;;;;;;4990018;28;20657;-85
2022/11/08 03:48:13;;;;;;;6.33;5.70;;;5.60;99.90;;;;;;4992276;28;20636;-85
2022/11/08 03:50:41;;;;;;;6.90;6.30;;;5.80;99.90;;;;;;4985104;28;20701;-85
2022/11/08 03:53:07;;;;;;;6.20;5.67;;;5.50;99.90;;;;;;4991700;28;20632;-84
2022/11/08 03:55:34;;;;;;;5.47;4.97;;;5.80;99.90;;;;;;4987800;28;20685;-85
2022/11/08 03:58:01;;;;;;;5.50;5.00;;;5.60;99.90;;;;;;4989986;28;20624;-85
2022/11/08 04:00:29;;;;;;;5.93;5.40;;;5.50;99.90;;;;;;4988808;28;20630;-85
2022/11/08 04:03:01;;;;;;;6.63;6.00;;;5.80;99.90;;;;;;4985533;28;20637;-85
2022/11/08 04:05:31;;;;;;;6.53;5.97;;;5.60;99.90;;;;;;4984251;28;20644;-86
2022/11/08 04:07:59;;;;;;;8.10;5.00;;;5.50;99.90;;;;;;4988904;28;20631;-85
2022/11/08 04:10:26;;;;;;;5.20;4.73;;;5.60;99.90;;;;;;4986790;28;20633;-85
2022/11/08 04:15:38;;;;;;;5.77;5.27;;;5.50;99.90;;;;;;4983979;28;20686;-85
2022/11/08 04:23:37;;;;;;;6.97;5.50;;;5.40;99.90;;;;;;4989858;28;20775;-85
2022/11/08 04:26:06;;;;;;;5.53;5.10;;;5.40;99.90;;;;;;4989149;28;20648;-85
2022/11/08 04:28:35;;;;;;;5.90;5.00;;;5.50;99.90;;;;;;4986486;28;21019;-84
2022/11/08 04:31:04;;;;;;;5.20;4.77;;;5.40;99.90;;;;;;4993715;28;20638;-84
2022/11/08 04:33:31;;;;;;;5.00;4.53;;;5.50;99.90;;;;;;4987677;28;20624;-84
2022/11/08 04:36:01;;;;;;;4.80;4.50;;;5.40;99.90;;;;;;4990105;28;20687;-85
2022/11/08 04:38:28;;;;;;;4.57;4.20;;;5.50;99.90;;;;;;4989237;28;21166;-85
2022/11/08 04:41:01;;;;;;;5.87;5.30;;;5.40;99.90;;;;;;4990149;28;20630;-85
2022/11/08 04:43:28;;;;;;;5.93;4.80;;;5.40;99.90;;;;;;4989214;28;20636;-85
2022/11/08 04:45:59;;;;;;;5.47;5.00;;;4.90;99.90;;;;;;4993741;28;20652;-86
2022/11/08 04:48:26;;;;;;;6.83;5.27;;;5.40;99.90;;;;;;4986714;28;21397;-85
2022/11/08 04:50:53;;;;;;;5.63;5.23;;;5.30;99.90;;;;;;4985480;28;21014;-85
2022/11/08 04:53:20;;;;;;;5.50;5.10;;;5.50;99.90;;;;;;4987697;28;21139;-85
2022/11/08 04:55:47;;;;;;;5.70;5.23;;;5.50;99.90;;;;;;4991100;28;20702;-85
2022/11/08 04:58:15;;;;;;;6.67;4.93;;;5.60;99.90;;;;;;4986137;28;20647;-85
2022/11/08 05:00:42;;;;;;;5.73;5.23;;;5.40;99.90;;;;;;4990609;28;20637;-84
2022/11/08 05:03:08;;;;;;;5.93;4.63;;;5.40;99.90;;;;;;4983098;28;20635;-84
2022/11/08 05:05:35;;;;;;;6.00;5.30;;;5.40;99.90;;;;;;4989237;28;21133;-84
2022/11/08 05:08:02;;;;;;;5.50;5.10;;;5.50;99.90;;;;;;4987186;28;20636;-84
2022/11/08 05:10:28;;;;;;;6.00;5.53;;;5.40;99.90;;;;;;4981509;28;21256;-84
2022/11/08 05:12:56;;;;;;;6.47;5.23;;;5.40;99.90;;;;;;4992058;28;20636;-85
2022/11/08 05:15:25;;;;;;;6.37;5.87;;;5.40;99.90;;;;;;4987795;28;21008;-85
2022/11/08 05:17:52;;;;;;;6.13;5.50;;;5.50;99.90;;;;;;4991992;28;20629;-85
2022/11/08 05:25:47;;;;;;;6.10;5.60;;;5.50;99.90;;;;;;4986008;28;20691;-87
2022/11/08 05:28:14;;;;;;;6.57;5.97;;;5.30;99.90;;;;;;4987516;28;20667;-86
2022/11/08 05:30:42;;;;;;;6.03;5.53;;;5.70;99.90;;;;;;4988083;28;20634;-86
2022/11/08 05:33:12;;;;;;;6.43;5.83;;;5.50;99.90;;;;;;4989490;28;20658;-86
2022/11/08 05:35:39;;;;;;;7.10;5.00;;;5.90;99.90;;;;;;4983193;28;20621;-86
2022/11/08 05:38:06;;;;;;;6.13;5.63;;;6.00;99.90;;;;;;4987396;28;20655;-84
2022/11/08 05:40:32;;;;;;;6.30;5.80;;;6.10;99.90;;;;;;4987758;28;20633;-84
2022/11/08 05:42:59;;;;;;;6.57;5.93;;;5.70;99.90;;;;;;4989328;28;20690;-84
2022/11/08 05:45:26;;;;;;;6.40;5.33;;;5.70;99.90;;;;;;4988464;28;21212;-85
2022/11/08 05:47:56;;;;;;;5.50;5.00;;;5.60;99.90;;;;;;4988960;28;20663;-85
2022/11/08 05:50:24;;;;;;;6.00;4.63;;;5.70;99.90;;;;;;4984704;28;21252;-85
2022/11/08 05:52:54;;;;;;;5.50;4.30;;;5.50;99.90;;;;;;4982880;28;20776;-85
2022/11/08 05:55:21;;;;;;;5.63;5.13;;;5.60;99.90;;;;;;4988450;28;20623;-85
2022/11/08 05:57:48;;;;;;;5.93;5.37;;;5.40;99.90;;;;;;4987722;28;21069;-84
2022/11/08 06:00:15;;;;;;;5.47;5.03;;;5.20;99.90;;;;;;4987943;28;20633;-85
2022/11/08 06:02:42;;;;;;;4.83;4.33;;;5.20;99.90;;;;;;4986035;28;20655;-85
2022/11/08 06:05:11;;;;;;;7.70;4.80;;;5.20;99.90;;;;;;4983571;28;21221;-85
2022/11/08 06:07:38;;;;;;;6.33;5.10;;;5.30;99.90;;;;;;4983188;28;20629;-84
2022/11/08 06:10:06;;;;;;;4.80;4.40;;;5.50;99.90;;;;;;4981774;28;20620;-84
2022/11/08 06:12:33;;;;;;;6.57;4.77;;;5.20;99.90;;;;;;4981820;28;20634;-84
2022/11/08 06:14:59;;;;;;;5.03;4.43;;;5.00;99.90;;;;;;4982218;28;20634;-84
2022/11/08 06:17:27;;;;;;;5.43;4.93;;;5.10;99.90;;;;;;4987725;28;20691;-84
2022/11/08 06:19:54;;;;;;;4.60;4.20;;;5.50;99.90;;;;;;4981121;28;20683;-85
2022/11/08 06:22:22;;;;;;;6.03;4.97;;;5.40;99.90;;;;;;4979263;28;20642;-84
2022/11/08 06:24:49;;;;;;;4.83;4.53;;;5.40;99.90;;;;;;4983193;28;20650;-84
2022/11/08 06:27:15;;;;;;;7.40;6.77;;;5.30;99.90;;;;;;4982951;28;20649;-84
2022/11/08 06:29:42;;;;;;;7.03;6.53;;;5.50;99.90;;;;;;4978405;28;21001;-85
2022/11/08 06:32:10;;;;;;;7.70;5.80;;;5.20;99.90;;;;;;4977791;28;20757;-86
2022/11/08 06:34:37;;;;;;;5.90;5.40;;;5.20;99.90;;;;;;4980467;28;20623;-84
2022/11/08 06:37:04;;;;;;;6.03;5.30;;;5.10;99.90;;;;;;4978438;28;20678;-84
2022/11/08 06:39:33;;;;;;;7.27;5.47;;;5.40;99.90;;;;;;4980117;28;20637;-85
2022/11/08 06:42:00;;;;;;;8.00;7.30;;;5.30;99.90;;;;;;4983620;28;20698;-85
2022/11/08 06:44:27;;;;;;;7.97;7.17;;;5.40;99.90;;;;;;4987401;28;20651;-84
2022/11/08 06:46:55;;;;;;;12.10;7.80;;;5.20;99.90;;;;;;4983585;28;21240;-84
2022/11/08 06:49:22;;;;;;;9.17;7.17;;;5.40;99.90;;;;;;4980312;28;20625;-84
2022/11/08 06:51:49;;;;;;;8.10;7.30;;;5.40;99.90;;;;;;4977630;28;20690;-84
2022/11/08 06:54:17;;;;;;;8.00;7.23;;;5.30;99.90;;;;;;4976378;28;21013;-84
2022/11/08 06:56:46;;;;;;;7.20;6.47;;;5.40;99.90;;;;;;4980268;28;20677;-84
2022/11/08 06:59:13;;;;;;;5.57;5.10;;;5.40;99.90;;;;;;4982109;28;20641;-84
2022/11/08 07:01:40;;;;;;;6.40;5.80;;;5.40;99.90;;;;;;4982402;28;20644;-84
2022/11/08 07:04:07;;;;;;;10.87;5.97;;;5.20;99.90;;;;;;4990705;28;20640;-84
2022/11/08 07:06:33;;;;;;;6.47;5.87;;;5.60;99.90;;;;;;4984381;28;20677;-84
2022/11/08 07:09:00;;;;;;;8.63;6.53;;;5.50;99.90;;;;;;4978413;28;20659;-83
2022/11/08 07:11:27;;;;;;;13.63;7.40;;;5.50;99.90;;;;;;4979357;28;20650;-85
2022/11/08 07:13:55;;;;;;;8.77;7.87;;;5.70;99.90;;;;;;4981694;28;20646;-86
2022/11/08 07:16:21;;;;;;;12.40;7.90;;;5.80;99.90;;;;;;4988318;28;20681;-85
2022/11/08 07:18:50;;;;;;;13.50;7.40;;;5.60;99.90;;;;;;4986937;28;20638;-85
2022/11/08 07:21:17;;;;;;;9.13;7.23;;;5.80;99.90;;;;;;4985136;28;21238;-86
2022/11/08 07:23:44;;;;;;;9.90;8.73;;;5.80;99.90;;;;;;4985851;28;20643;-85
2022/11/08 07:26:12;;;;;;;9.40;8.50;;;6.00;99.90;;;;;;4981135;28;20661;-84
2022/11/08 07:28:38;;;;;;;11.03;8.63;;;6.20;99.90;;;;;;4988485;28;20675;-85
2022/11/08 07:31:08;;;;;;;12.80;9.07;;;6.30;99.90;;;;;;4989080;28;20628;-86
2022/11/08 07:33:35;;;;;;;9.63;8.07;;;6.40;99.90;;;;;;4990180;28;20634;-85
2022/11/08 07:36:02;;;;;;;9.10;8.20;;;6.70;99.90;;;;;;4986157;28;20656;-86
2022/11/08 07:38:29;;;;;;;9.97;9.00;;;6.70;99.90;;;;;;4980525;28;20633;-85
2022/11/08 07:40:57;;;;;;;12.33;9.07;;;6.40;99.90;;;;;;4978562;28;20657;-86
2022/11/08 07:43:24;;;;;;;12.27;8.60;;;6.20;99.90;;;;;;4983542;28;20633;-86
2022/11/08 07:45:57;;;;;;;8.87;7.70;;;6.70;99.90;;;;;;4987326;28;20664;-85
2022/11/08 07:48:26;;;;;;;9.27;8.40;;;6.70;99.90;;;;;;4982753;28;20635;-85
2022/11/08 07:50:53;;;;;;;9.47;8.60;;;6.60;99.90;;;;;;4978555;28;20636;-85
2022/11/08 07:53:20;;;;;;;9.63;8.73;;;6.70;99.90;;;;;;4980452;28;20671;-85
2022/11/08 07:55:47;;;;;;;11.77;9.47;;;6.60;99.90;;;;;;4985387;28;20635;-85
2022/11/08 07:58:15;;;;;;;9.40;8.57;;;6.70;99.90;;;;;;4985090;28;20705;-85
2022/11/08 08:00:44;;;;;;;10.80;9.70;;;6.60;99.90;;;;;;4988053;28;20647;-85
2022/11/08 08:03:13;;;;;;;8.93;8.13;;;6.60;99.90;;;;;;4987014;28;20633;-85
2022/11/08 08:05:43;;;;;;;9.60;8.63;;;6.40;99.90;;;;;;4990421;28;20632;-85
2022/11/08 08:08:11;;;;;;;9.70;8.80;;;6.60;99.90;;;;;;4989669;28;20620;-86
2022/11/08 08:10:38;;;;;;;10.00;8.77;;;6.80;99.90;;;;;;4971298;28;21002;-85
2022/11/08 08:13:06;;;;;;;12.93;11.73;;;7.00;99.90;;;;;;4987797;28;21191;-85
2022/11/08 08:15:33;;;;;;;12.33;10.67;;;7.10;99.90;;;;;;4983569;28;20613;-86
2022/11/08 08:18:01;;;;;;;9.43;8.50;;;7.10;99.90;;;;;;4982727;28;20836;-85
2022/11/08 08:20:28;;;;;;;9.20;8.30;;;7.10;99.90;;;;;;4980856;28;20629;-85
2022/11/08 08:22:57;;;;;;;8.93;8.20;;;7.50;99.90;;;;;;4987200;28;21220;-85
2022/11/08 08:25:25;;;;;;;8.43;7.77;;;7.60;99.90;;;;;;4978558;28;20628;-86
2022/11/08 08:27:54;;;;;;;9.50;7.80;;;7.80;99.90;;;;;;4989025;28;20645;-86
2022/11/08 08:30:23;;;;;;;8.60;7.73;;;7.70;99.90;;;;;;4982046;28;21162;-86
2022/11/08 08:32:51;;;;;;;8.53;7.70;;;7.60;99.90;;;;;;4979883;28;21204;-86
2022/11/08 08:35:18;;;;;;;12.57;7.60;;;8.00;99.90;;;;;;4984366;28;20623;-86
2022/11/08 08:37:45;;;;;;;7.93;7.30;;;8.20;99.90;;;;;;4980637;28;20680;-86
2022/11/08 08:40:13;;;;;;;8.13;7.43;;;8.20;99.90;;;;;;4979451;28;20633;-86
2022/11/08 08:42:40;;;;;;;14.50;7.80;;;8.50;99.90;;;;;;4978631;28;20641;-86
2022/11/08 08:45:08;;;;;;;7.50;6.80;;;8.90;99.90;;;;;;4980816;28;20636;-86
2022/11/08 08:47:35;;;;;;;5.73;5.23;;;8.90;99.90;;;;;;4977213;28;20947;-86
2022/11/08 08:50:02;;;;;;;6.67;6.17;;;9.30;99.90;;;;;;4981935;28;20613;-87
2022/11/08 08:52:29;;;;;;;5.60;5.10;;;9.10;99.90;;;;;;4979199;28;20639;-87
2022/11/08 08:54:56;;;;;;;9.27;6.03;;;9.40;99.90;;;;;;4983725;28;20642;-87
2022/11/08 08:57:24;;;;;;;7.10;5.80;;;9.60;99.90;;;;;;4980669;28;20688;-86
2022/11/08 08:59:51;;;;;;;5.83;5.30;;;9.60;99.90;;;;;;4981688;28;20628;-86
2022/11/08 09:02:18;;;;;;;8.27;5.97;;;9.60;99.90;;;;;;4982134;28;20629;-87
2022/11/08 09:04:44;;;;;;;8.70;5.10;;;10.10;99.90;;;;;;4984353;28;21232;-87
2022/11/08 09:07:11;;;;;;;5.97;5.50;;;10.00;99.90;;;;;;4978965;28;20667;-87
2022/11/08 09:09:38;;;;;;;9.97;5.40;;;10.60;99.90;;;;;;4981772;28;20632;-86
2022/11/08 09:12:05;;;;;;;6.03;5.43;;;10.90;99.90;;;;;;4982026;28;20643;-86
2022/11/08 09:14:33;;;;;;;5.83;5.33;;;11.00;99.90;;;;;;4980461;28;20644;-87
2022/11/08 09:17:00;;;;;;;7.23;6.37;;;11.30;99.90;;;;;;4983255;28;20669;-86
2022/11/08 09:19:27;;;;;;;4.80;4.40;;;11.30;99.90;;;;;;4978342;28;21154;-87
2022/11/08 09:21:53;;;;;;;5.27;4.37;;;11.40;99.90;;;;;;4986452;28;20635;-87
2022/11/08 09:24:20;;;;;;;7.37;4.37;;;11.50;99.90;;;;;;4976419;28;20648;-88
2022/11/08 09:26:47;;;;;;;6.03;5.43;;;11.70;99.90;;;;;;4978067;28;21204;-86
2022/11/08 09:29:14;;;;;;;7.30;4.87;;;11.60;99.90;;;;;;4978514;28;20698;-87
2022/11/08 09:31:42;;;;;;;6.20;4.30;;;12.10;99.90;;;;;;4983531;28;20635;-87
2022/11/08 09:34:09;;;;;;;4.90;4.10;;;11.90;99.90;;;;;;4984074;28;20621;-87
2022/11/08 09:36:36;;;;;;;5.80;4.43;;;12.30;99.90;;;;;;4978853;28;20760;-87
2022/11/08 09:39:03;;;;;;;5.00;4.33;;;13.00;99.90;;;;;;4980084;28;20632;-87
2022/11/08 09:41:56;;;;;;;6.50;5.07;;;13.30;99.90;;;;;;4967303;28;20996;-86
2022/11/08 09:44:40;;;;;;;4.83;4.27;;;13.70;99.90;;;;;;4980101;28;20625;-87
2022/11/08 09:47:16;;;;;;;4.50;4.10;;;14.20;99.90;;;;;;4978661;28;20656;-87
2022/11/08 09:49:46;;;;;;;5.50;5.00;;;14.50;99.90;;;;;;4978040;28;20640;-87
2022/11/08 09:52:23;;;;;;;4.60;4.20;;;14.80;99.90;;;;;;4985304;28;21065;-87
2022/11/08 09:54:52;;;;;;;6.87;4.37;;;15.30;99.90;;;;;;4989225;28;20635;-86
2022/11/08 09:57:26;;;;;;;4.20;3.80;;;15.60;99.90;;;;;;4979080;28;21060;-86
2022/11/08 09:59:58;;;;;;;3.93;3.53;;;16.00;90.60;;;;;;4980826;28;20637;-87
2022/11/08 10:02:27;;;;;;;3.63;3.33;;;16.30;1.00;;;;;;4981288;28;20648;-85
2022/11/08 10:04:58;;;;;;;5.20;3.67;;;16.50;1.00;;;;;;4980577;28;20675;-88
2022/11/08 10:07:32;;;;;;;5.57;3.80;;;16.70;1.00;;;;;;4981304;28;20672;-86
2022/11/08 10:10:23;;;;;;;3.57;3.27;;;16.80;1.00;;;;;;4980200;28;20667;-86
2022/11/08 10:13:00;;;;;;;3.23;2.93;;;16.90;1.00;;;;;;4982159;28;20636;-87
2022/11/08 10:15:34;;;;;;;5.20;3.97;;;16.80;99.90;;;;;;4976561;28;20955;-87
2022/11/08 10:18:20;;;;;;;5.73;3.90;;;16.70;1.00;;;;;;4978665;28;20652;-88
2022/11/08 10:20:59;;;;;;;6.87;4.13;;;16.50;1.00;;;;;;4980734;28;20629;-88
2022/11/08 10:23:40;;;;;;;12.00;3.73;;;16.60;1.00;;;;;;4979699;28;20634;-88
2022/11/08 10:26:12;;;;;;;6.13;3.97;;;16.40;99.90;;;;;;4986010;28;20651;-88
2022/11/08 10:28:43;;;;;;;10.43;4.47;;;16.10;44.40;;;;;;4982958;28;20644;-88
2022/11/08 10:31:14;;;;;;;4.03;3.70;;;16.10;78.50;;;;;;4978271;28;20631;-88
2022/11/08 10:33:48;;;;;;;5.60;3.40;;;16.00;1.00;;;;;;4977432;28;20620;-88
2022/11/08 10:36:21;;;;;;;8.00;5.10;;;15.90;99.90;;;;;;4976334;28;20661;-87
2022/11/08 10:38:54;;;;;;;6.70;5.10;;;15.90;99.90;;;;;;4978872;28;20671;-87
2022/11/08 10:41:26;;;;;;;8.03;5.17;;;15.80;1.00;;;;;;4973535;28;20629;-87
2022/11/08 10:43:58;;;;;;;8.53;5.00;;;15.70;1.00;;;;;;4981071;28;20620;-87
2022/11/08 10:46:42;;;;;;;8.47;4.43;;;15.70;99.90;;;;;;4981218;28;21031;-88
2022/11/08 10:49:15;;;;;;;5.90;4.40;;;15.60;1.00;;;;;;4978469;28;20613;-87
2022/11/08 10:51:44;;;;;;;6.67;4.97;;;15.80;1.00;;;;;;4974998;28;20641;-87
2022/11/08 10:54:42;;;;;;;5.10;4.20;;;15.90;1.00;;;;;;4977953;28;20612;-87
2022/11/08 10:57:10;;;;;;;6.63;5.30;;;15.80;99.90;;;;;;4976591;28;20675;-87
2022/11/08 10:59:37;;;;;;;4.40;4.00;;;15.80;99.90;;;;;;4980829;28;20687;-87
2022/11/08 11:02:21;;;;;;;6.07;5.03;;;15.80;1.00;;;;;;4985192;28;21201;-87
2022/11/08 11:04:50;;;;;;;4.60;4.20;;;15.80;1.00;;;;;;4981268;28;20623;-87
2022/11/08 11:07:33;;;;;;;6.70;4.53;;;15.90;99.90;;;;;;4980033;28;20700;-86
2022/11/08 11:10:22;;;;;;;7.90;5.37;;;16.10;1.00;;;;;;4979838;28;21438;-87
2022/11/08 11:12:50;;;;;;;5.90;5.23;;;16.40;99.90;;;;;;4978540;28;21262;-86
2022/11/08 11:15:17;;;;;;;4.90;4.50;;;16.60;99.90;;;;;;4978511;28;21168;-87
2022/11/08 11:17:46;;;;;;;6.70;4.77;;;16.60;1.00;;;;;;4982864;28;20776;-87
2022/11/08 11:20:22;;;;;;;3.93;3.50;;;16.50;99.90;;;;;;4988459;28;20635;-86
2022/11/08 11:22:51;;;;;;;5.40;4.90;;;16.50;99.90;;;;;;4988908;28;20639;-87
2022/11/08 11:25:20;;;;;;;4.33;3.60;;;16.60;99.90;;;;;;4983934;28;20660;-87
2022/11/08 11:27:53;;;;;;;6.17;5.03;;;16.60;1.00;;;;;;4986351;28;20648;-86
2022/11/08 11:30:32;;;;;;;8.90;6.90;;;16.50;1.00;;;;;;4978573;28;20650;-87
2022/11/08 11:33:06;;;;;;;6.13;5.40;;;16.60;58.00;;;;;;4978253;28;20623;-87
2022/11/08 11:35:47;;;;;;;14.13;9.00;;;16.70;1.00;;;;;;4980826;28;20645;-88
2022/11/08 11:38:22;;;;;;;11.07;6.30;;;16.50;99.90;;;;;;4986735;28;20667;-88
2022/11/08 11:40:53;;;;;;;7.67;5.13;;;16.50;1.00;;;;;;4983088;28;20641;-87
2022/11/08 11:43:26;;;;;;;6.70;5.33;;;16.40;99.90;;;;;;4973218;28;20638;-87
2022/11/08 11:45:58;;;;;;;5.03;4.57;;;16.50;99.90;;;;;;4979779;28;20615;-87
2022/11/08 11:48:28;;;;;;;4.70;4.30;;;16.70;99.90;;;;;;4980715;28;20685;-88
2022/11/08 11:50:57;;;;;;;7.10;5.90;;;16.60;99.90;;;;;;4972497;28;20647;-88
2022/11/08 11:53:26;;;;;;;5.90;5.37;;;16.60;1.00;;;;;;4980150;28;20637;-87
2022/11/08 11:56:32;;;;;;;6.20;4.83;;;16.70;1.00;;;;;;4974576;28;21166;-87
2022/11/08 11:59:34;;;;;;;6.43;4.57;;;17.20;1.00;;;;;;4982903;28;20644;-87
2022/11/08 12:02:37;;;;;;;7.00;4.70;;;17.90;1.00;;;;;;4979975;28;20612;-87
2022/11/08 12:05:25;;;;;;;4.17;3.60;;;18.60;1.00;;;;;;4966763;28;20647;-88
2022/11/08 12:08:03;;;;;;;5.77;3.70;;;19.10;1.00;;;;;;4978359;28;20658;-88
2022/11/08 12:10:42;;;;;;;4.00;2.90;;;19.30;1.00;;;;;;4964494;28;20617;-88
2022/11/08 12:13:18;;;;;;;4.90;3.93;;;19.50;99.90;;;;;;4982019;28;20616;-88
2022/11/08 12:15:51;;;;;;;4.37;3.30;;;19.70;99.90;;;;;;4981838;28;20621;-88
2022/11/08 12:18:32;;;;;;;5.40;3.70;;;20.10;1.00;;;;;;4981162;28;20664;-88
2022/11/08 12:21:07;;;;;;;4.60;3.20;;;20.60;1.00;;;;;;4978830;28;21208;-89
2022/11/08 12:23:57;;;;;;;4.03;3.63;;;21.30;1.00;;;;;;4977413;28;20625;-88
2022/11/08 12:26:30;;;;;;;5.20;3.33;;;22.20;82.80;;;;;;4977106;28;20706;-88
2022/11/08 12:29:07;;;;;;;3.70;2.97;;;22.80;78.30;;;;;;4984672;28;20628;-89
2022/11/08 12:31:44;;;;;;;4.17;2.40;;;23.50;73.70;;;;;;4984817;28;20660;-88
2022/11/08 12:34:20;;;;;;;3.50;2.43;;;24.20;70.20;;;;;;4980667;28;20632;-86
2022/11/08 12:37:09;;;;;;;3.67;3.17;;;24.80;64.60;;;;;;4982666;28;20732;-89
2022/11/08 12:39:45;;;;;;;6.37;3.23;;;25.20;61.20;;;;;;4982478;28;20657;-89
2022/11/08 12:42:41;;;;;;;6.10;3.13;;;25.60;60.10;;;;;;4983161;28;20628;-87
2022/11/08 12:45:33;;;;;;;4.73;3.50;;;25.70;58.00;;;;;;4960933;28;20702;-87
2022/11/08 12:48:11;;;;;;;3.43;3.00;;;26.10;56.70;;;;;;4976972;28;20645;-88
2022/11/08 12:50:46;;;;;;;3.30;3.00;;;26.50;54.90;;;;;;4989238;28;20632;-86
2022/11/08 12:53:42;;;;;;;4.40;3.60;;;26.70;53.90;;;;;;4988177;28;20626;-87
2022/11/08 12:56:15;;;;;;;5.00;3.30;;;26.70;52.70;;;;;;4977397;28;20690;-86
2022/11/08 12:58:45;;;;;;;4.20;3.20;;;26.20;52.60;;;;;;4968014;28;20727;-87
2022/11/08 13:01:13;;;;;;;4.23;3.90;;;25.70;53.40;;;;;;4989618;28;20661;-87
2022/11/08 13:04:05;;;;;;;6.47;3.90;;;24.90;54.60;;;;;;4980865;28;20628;-87
2022/11/08 13:06:41;;;;;;;5.20;3.40;;;23.80;56.60;;;;;;4983660;28;21276;-88
2022/11/08 13:09:16;;;;;;;4.60;4.10;;;23.40;57.80;;;;;;4982518;28;20616;-89
2022/11/08 13:11:52;;;;;;;6.70;4.07;;;22.80;59.80;;;;;;4977221;28;20712;-87
2022/11/08 13:14:21;;;;;;;4.67;3.20;;;22.50;60.80;;;;;;4982818;28;20730;-87
2022/11/08 13:17:13;;;;;;;4.80;3.93;;;22.20;61.80;;;;;;4981922;28;20651;-87
2022/11/08 13:19:55;;;;;;;4.13;3.73;;;22.10;64.70;;;;;;4981252;28;20778;-87
2022/11/08 13:22:56;;;;;;;4.17;3.80;;;22.00;65.40;;;;;;4980480;28;20633;-86
2022/11/08 13:25:35;;;;;;;7.83;4.23;;;21.50;65.50;;;;;;4974369;28;20625;-87
2022/11/08 13:28:44;;;;;;;8.80;4.40;;;21.20;69.40;;;;;;4982590;28;21113;-86
2022/11/08 13:31:31;;;;;;;6.13;3.40;;;21.00;69.00;;;;;;4983025;28;21239;-87
2022/11/08 13:34:26;;;;;;;5.37;3.43;;;20.60;72.10;;;;;;4982951;28;20637;-87